createdAt,value
2018-12-23T00:01:41.730Z,98885.30
2018-12-23T00:04:45.864Z,98877.09
2018-12-23T00:07:49.229Z,98877.92
2018-12-23T00:10:52.527Z,98880.81
2018-12-23T00:13:56.133Z,98882.20
2018-12-23T00:16:59.424Z,98880.34
2018-12-23T00:20:03.236Z,98884.69
2018-12-23T00:23:06.470Z,98890.66
2018-12-23T00:26:09.735Z,98900.03
2018-12-23T00:29:12.972Z,98898.91
2018-12-23T00:32:16.228Z,98903.86
2018-12-23T00:35:20.593Z,98911.63
2018-12-23T00:38:24.042Z,98912.33
2018-12-23T00:41:27.301Z,98913.53
2018-12-23T00:44:30.527Z,98910.34
2018-12-23T00:47:33.764Z,98911.94
2018-12-23T00:50:37.020Z,98921.53
2018-12-23T00:53:40.321Z,98912.82
2018-12-23T00:56:43.545Z,98922.53
2018-12-23T00:59:46.769Z,98931.70
2018-12-23T01:02:53.889Z,98926.30
2018-12-23T01:05:57.109Z,98929.09
2018-12-23T01:09:00.345Z,98928.53
2018-12-23T01:12:03.570Z,98933.80
2018-12-23T01:15:06.889Z,98940.98
2018-12-23T01:18:10.452Z,98937.48
2018-12-23T01:21:14.352Z,98951.08
2018-12-23T01:24:17.589Z,98943.22
2018-12-23T01:27:20.817Z,98951.41
2018-12-23T01:30:24.439Z,98956.33
2018-12-23T01:33:28.784Z,98956.27
2018-12-23T01:36:32.010Z,98948.38
2018-12-23T01:39:35.264Z,98950.20
2018-12-23T01:42:38.516Z,98946.64
2018-12-23T01:45:41.732Z,98955.59
2018-12-23T01:48:44.958Z,98950.97
2018-12-23T01:51:48.213Z,98960.80
2018-12-23T01:54:51.452Z,98957.77
2018-12-23T01:57:55.140Z,98963.69
2018-12-23T02:00:59.199Z,98961.36
2018-12-23T02:04:04.557Z,98956.98
2018-12-23T02:07:07.866Z,98957.39
2018-12-23T02:10:11.252Z,98964.13
2018-12-23T02:13:14.693Z,98962.33
2018-12-23T02:16:17.932Z,98961.47
2018-12-23T02:19:34.400Z,98960.89
2018-12-23T02:22:37.620Z,98961.05
2018-12-23T02:25:40.945Z,98955.53
2018-12-23T02:28:44.152Z,98962.75
2018-12-23T02:31:47.438Z,98959.72
2018-12-23T02:34:50.748Z,98953.48
2018-12-23T02:37:53.983Z,98963.87
2018-12-23T02:40:57.296Z,98964.30
2018-12-23T02:44:00.597Z,98956.67
2018-12-23T02:47:03.840Z,98956.93
2018-12-23T02:50:07.113Z,98959.55
2018-12-23T02:53:10.343Z,98959.15
2018-12-23T02:56:13.644Z,98957.35
2018-12-23T02:59:16.907Z,98953.54
2018-12-23T03:02:20.217Z,98957.25
2018-12-23T03:05:24.386Z,98956.27
2018-12-23T03:08:28.001Z,98949.36
2018-12-23T03:11:31.266Z,98954.66
2018-12-23T03:14:34.526Z,98959.86
2018-12-23T03:17:37.776Z,98956.66
2018-12-23T03:20:41.091Z,98951.53
2018-12-23T03:23:44.467Z,98948.19
2018-12-23T03:26:47.996Z,98945.30
2018-12-23T03:29:51.470Z,98960.22
2018-12-23T03:32:54.774Z,98957.19
2018-12-23T03:36:00.972Z,98945.04
2018-12-23T03:39:06.102Z,98945.72
2018-12-23T03:42:09.340Z,98946.85
2018-12-23T03:45:12.590Z,98950.49
2018-12-23T03:48:16.129Z,98946.44
2018-12-23T03:51:21.597Z,98956.87
2018-12-23T03:54:24.934Z,98952.19
2018-12-23T03:57:30.946Z,98949.78
2018-12-23T04:00:34.178Z,98954.57
2018-12-23T04:03:37.508Z,98954.36
2018-12-23T04:06:40.713Z,98955.80
2018-12-23T04:09:43.936Z,98956.37
2018-12-23T04:12:48.436Z,98959.72
2018-12-23T04:15:51.665Z,98959.72
2018-12-23T04:18:54.901Z,98967.95
2018-12-23T04:21:58.321Z,98963.38
2018-12-23T04:25:01.726Z,98958.63
2018-12-23T04:28:05.305Z,98954.67
2018-12-23T04:31:08.846Z,98963.67
2018-12-23T04:34:12.205Z,98962.23
2018-12-23T04:37:15.510Z,98963.87
2018-12-23T04:40:19.000Z,98965.94
2018-12-23T04:43:22.224Z,98969.95
2018-12-23T04:46:25.477Z,98961.56
2018-12-23T04:49:28.798Z,98961.04
2018-12-23T04:52:32.105Z,98966.80
2018-12-23T04:55:35.338Z,98957.75
2018-12-23T04:58:55.473Z,98968.00
2018-12-23T05:01:58.717Z,98954.63
2018-12-23T05:05:01.941Z,98951.78
2018-12-23T05:08:05.219Z,98951.83
2018-12-23T05:11:09.255Z,98946.58
2018-12-23T05:14:13.926Z,98948.91
2018-12-23T05:17:17.324Z,98949.77
2018-12-23T05:20:20.682Z,98945.76
2018-12-23T05:23:23.946Z,98945.84
2018-12-23T05:26:27.215Z,98952.00
2018-12-23T05:29:31.677Z,98957.34
2018-12-23T05:32:35.054Z,98957.54
2018-12-23T05:35:38.330Z,98963.94
2018-12-23T05:38:41.593Z,98965.27
2018-12-23T05:41:44.819Z,98958.84
2018-12-23T05:44:48.047Z,98961.78
2018-12-23T05:47:51.372Z,98965.19
2018-12-23T05:50:54.629Z,98959.27
2018-12-23T05:53:57.938Z,98971.87
2018-12-23T05:57:01.211Z,98979.29
2018-12-23T06:00:04.789Z,98972.48
2018-12-23T06:03:08.017Z,98967.41
2018-12-23T06:06:11.284Z,98974.05
2018-12-23T06:09:14.605Z,98990.84
2018-12-23T06:12:17.828Z,98984.92
2018-12-23T06:15:21.048Z,98982.44
2018-12-23T06:18:24.273Z,98973.72
2018-12-23T06:21:27.573Z,98972.78
2018-12-23T06:24:30.791Z,98967.30
2018-12-23T06:27:35.024Z,98967.88
2018-12-23T06:30:38.241Z,98964.25
2018-12-23T06:33:41.529Z,98970.42
2018-12-23T06:36:44.798Z,98972.44
2018-12-23T06:39:48.100Z,98969.09
2018-12-23T06:42:51.384Z,98976.26
2018-12-23T06:45:54.583Z,98990.28
2018-12-23T06:48:57.809Z,98987.33
2018-12-23T06:52:01.037Z,98991.28
2018-12-23T06:55:04.373Z,98986.70
2018-12-23T06:58:07.600Z,98997.15
2018-12-23T07:01:10.829Z,99001.87
2018-12-23T07:04:14.053Z,99010.21
2018-12-23T07:07:18.816Z,99010.84
2018-12-23T07:10:22.395Z,99019.61
2018-12-23T07:13:25.621Z,99015.09
2018-12-23T07:16:28.881Z,99017.00
2018-12-23T07:19:32.093Z,99017.52
2018-12-23T07:22:35.373Z,99012.04
2018-12-23T07:25:38.598Z,99004.92
2018-12-23T07:28:41.905Z,99002.98
2018-12-23T07:31:45.124Z,99008.66
2018-12-23T07:34:48.361Z,98997.97
2018-12-23T07:37:51.589Z,99002.59
2018-12-23T07:40:54.893Z,99002.87
2018-12-23T07:43:58.120Z,99002.06
2018-12-23T07:47:01.339Z,99005.84
2018-12-23T07:50:05.877Z,99004.17
2018-12-23T07:53:09.101Z,98998.67
2018-12-23T07:56:12.321Z,98996.69
2018-12-23T07:59:15.621Z,98991.99
2018-12-23T08:02:18.882Z,98994.53
2018-12-23T08:05:22.117Z,98990.92
2018-12-23T08:08:25.401Z,98994.30
2018-12-23T08:11:28.620Z,99000.96
2018-12-23T08:14:32.924Z,98992.64
2018-12-23T08:17:36.149Z,98988.16
2018-12-23T08:20:39.369Z,98993.91
2018-12-23T08:23:42.689Z,98995.92
2018-12-23T08:26:45.911Z,98991.38
2018-12-23T08:29:49.229Z,98982.20
2018-12-23T08:32:52.449Z,98980.70
2018-12-23T08:35:55.669Z,98990.29
2018-12-23T08:38:58.892Z,98989.15
2018-12-23T08:42:02.181Z,98984.79
2018-12-23T08:45:05.771Z,98992.14
2018-12-23T08:48:08.999Z,98993.93
2018-12-23T08:51:12.304Z,98990.83
2018-12-23T08:54:15.510Z,98992.38
2018-12-23T08:57:18.736Z,98990.48
2018-12-23T09:00:21.997Z,98982.24
2018-12-23T09:03:25.218Z,98990.44
2018-12-23T09:06:28.498Z,98988.43
2018-12-23T09:09:31.723Z,98988.53
2018-12-23T09:12:35.025Z,98980.89
2018-12-23T09:15:38.453Z,98971.87
2018-12-23T09:18:41.692Z,98969.45
2018-12-23T09:21:44.927Z,98972.27
2018-12-23T09:24:48.237Z,98964.31
2018-12-23T09:27:51.489Z,98964.03
2018-12-23T09:30:54.756Z,98960.88
2018-12-23T09:33:57.979Z,98954.81
2018-12-23T09:37:01.267Z,98952.45
2018-12-23T09:40:04.553Z,98948.05
2018-12-23T09:43:07.781Z,98946.45
2018-12-23T09:46:11.034Z,98936.58
2018-12-23T09:49:14.268Z,98937.69
2018-12-23T09:52:17.528Z,98930.84
2018-12-23T09:59:05.944Z,98923.63
2018-12-23T10:02:10.768Z,98910.54
2018-12-23T10:05:15.598Z,98909.93
2018-12-23T10:08:20.437Z,98915.06
2018-12-23T10:11:24.990Z,98907.88
2018-12-23T10:14:29.546Z,98909.51
2018-12-23T10:17:34.093Z,98902.80
2018-12-23T10:20:38.642Z,98897.65
2018-12-23T10:23:43.188Z,98899.02
2018-12-23T10:26:47.997Z,98893.44
2018-12-23T10:29:52.830Z,98891.83
2018-12-23T10:32:57.373Z,98889.98
2018-12-23T10:36:02.191Z,98887.84
2018-12-23T10:39:07.506Z,98882.02
2018-12-23T10:42:12.380Z,98878.27
2018-12-23T10:45:17.311Z,98884.14
2018-12-23T10:48:21.855Z,98874.22
2018-12-23T10:51:26.413Z,98872.92
2018-12-23T10:54:30.958Z,98857.59
2018-12-23T10:57:35.814Z,98848.42
2018-12-23T11:00:40.372Z,98848.41
2018-12-23T11:03:44.982Z,98849.78
2018-12-23T11:06:50.131Z,98846.58
2018-12-23T11:10:02.037Z,98839.87
2018-12-23T11:13:01.427Z,98835.02
2018-12-23T11:16:05.991Z,98828.59
2018-12-23T11:19:10.540Z,98823.73
2018-12-23T11:22:15.723Z,98815.64
2018-12-23T11:25:20.256Z,98807.58
2018-12-23T11:28:24.822Z,98803.50
2018-12-23T11:31:29.447Z,98803.48
2018-12-23T11:34:34.045Z,98798.73
2018-12-23T11:37:39.065Z,98791.70
2018-12-23T11:40:43.632Z,98791.15
2018-12-23T11:43:48.170Z,98788.71
2018-12-23T11:46:52.726Z,98786.78
2018-12-23T11:49:57.272Z,98773.85
2018-12-23T11:53:02.095Z,98761.53
2018-12-23T11:56:06.927Z,98762.81
2018-12-23T11:59:11.469Z,98745.30
2018-12-23T12:02:16.054Z,98749.83
2018-12-23T12:05:20.919Z,98741.80
2018-12-23T12:08:25.468Z,98731.61
2018-12-23T12:11:30.023Z,98725.20
2018-12-23T12:14:34.918Z,98718.23
2018-12-23T12:17:39.734Z,98711.80
2018-12-23T12:20:44.570Z,98702.16
2018-12-23T12:23:49.121Z,98702.72
2018-12-23T12:26:53.928Z,98696.23
2018-12-23T12:29:58.561Z,98690.30
2018-12-23T12:33:03.394Z,98678.77
2018-12-23T12:36:08.224Z,98681.48
2018-12-23T12:39:12.775Z,98674.02
2018-12-23T12:42:17.327Z,98673.43
2018-12-23T12:45:21.950Z,98669.41
2018-12-23T12:48:26.841Z,98665.08
2018-12-23T12:51:31.388Z,98656.54
2018-12-23T12:54:35.937Z,98647.64
2018-12-23T12:57:40.826Z,98648.97
2018-12-23T13:00:45.656Z,98643.92
2018-12-23T13:03:50.208Z,98635.86
2018-12-23T13:06:54.831Z,98631.77
2018-12-23T13:09:59.379Z,98625.05
2018-12-23T13:13:04.277Z,98610.30
2018-12-23T13:16:09.116Z,98610.02
2018-12-23T13:19:13.943Z,98603.29
2018-12-23T13:22:18.569Z,98600.35
2018-12-23T13:25:23.123Z,98587.21
2018-12-23T13:28:27.673Z,98585.32
2018-12-23T13:31:32.228Z,98586.42
2018-12-23T13:34:36.779Z,98577.57
2018-12-23T13:37:41.332Z,98568.73
2018-12-23T13:41:06.835Z,98557.33
2018-12-23T13:44:34.000Z,98540.97
2018-12-23T13:47:58.654Z,98530.71
2018-12-23T13:51:41.659Z,98522.97
2018-12-23T13:55:11.957Z,98509.77
2018-12-23T13:58:43.211Z,98500.69
2018-12-23T14:02:04.177Z,98493.41
2018-12-23T14:05:25.612Z,98480.53
2018-12-23T14:08:52.808Z,98471.05
2018-12-23T14:11:58.230Z,98457.88
2018-12-23T14:15:02.769Z,98448.76
2018-12-23T14:18:07.312Z,98436.95
2018-12-23T14:21:11.847Z,98429.78
2018-12-23T14:24:16.384Z,98422.29
2018-12-23T14:27:20.929Z,98415.86
2018-12-23T14:30:25.458Z,98410.45
2018-12-23T14:33:29.996Z,98392.85
2018-12-23T14:36:34.528Z,98382.19
2018-12-23T14:39:39.061Z,98376.81
2018-12-23T14:42:43.898Z,98373.80
2018-12-23T14:45:48.436Z,98364.13
2018-12-23T14:48:52.981Z,98364.41
2018-12-23T14:51:57.518Z,98350.22
2018-12-23T14:55:02.301Z,98351.35
2018-12-23T14:58:06.841Z,98346.00
2018-12-23T15:01:11.757Z,98335.30
2018-12-23T15:04:16.593Z,98321.69
2018-12-23T15:07:21.132Z,98326.50
2018-12-23T15:10:25.959Z,98321.11
2018-12-23T15:13:30.790Z,98323.77
2018-12-23T15:16:35.622Z,98315.50
2018-12-23T15:19:40.563Z,98304.80
2018-12-23T15:22:45.105Z,98292.44
2018-12-23T15:25:49.644Z,98296.42
2018-12-23T15:28:54.193Z,98288.69
2018-12-23T15:31:59.068Z,98273.98
2018-12-23T15:35:03.600Z,98270.23
2018-12-23T15:38:08.143Z,98259.30
2018-12-23T15:41:12.680Z,98255.59
2018-12-23T15:44:17.561Z,98247.53
2018-12-23T15:47:22.529Z,98246.48
2018-12-23T15:50:27.069Z,98234.41
2018-12-23T15:53:31.609Z,98231.19
2018-12-23T15:56:36.136Z,98229.87
2018-12-23T15:59:40.676Z,98225.03
2018-12-23T16:02:45.214Z,98221.84
2018-12-23T16:05:49.746Z,98211.68
2018-12-23T16:08:54.285Z,98207.94
2018-12-23T16:11:59.138Z,98210.09
2018-12-23T16:15:03.677Z,98203.14
2018-12-23T16:18:08.218Z,98204.20
2018-12-23T16:21:12.754Z,98194.03
2018-12-23T16:24:17.562Z,98194.83
2018-12-23T16:27:22.094Z,98201.00
2018-12-23T16:30:26.642Z,98193.53
2018-12-23T16:33:31.251Z,98184.16
2018-12-23T16:36:35.786Z,98176.14
2018-12-23T16:39:40.327Z,98179.06
2018-12-23T16:42:44.859Z,98175.84
2018-12-23T16:45:49.401Z,98165.40
2018-12-23T16:48:54.184Z,98158.44
2018-12-23T16:51:58.715Z,98161.12
2018-12-23T16:55:03.261Z,98159.48
2018-12-23T16:58:07.804Z,98158.17
2018-12-23T17:01:12.677Z,98149.32
2018-12-23T17:04:17.225Z,98143.41
2018-12-23T17:07:21.760Z,98143.16
2018-12-23T17:10:26.561Z,98135.11
2018-12-23T17:13:31.104Z,98141.80
2018-12-23T17:16:35.922Z,98128.95
2018-12-23T17:19:40.792Z,98125.96
2018-12-23T17:22:45.295Z,98122.19
2018-12-23T17:25:50.127Z,98118.42
2018-12-23T17:28:54.667Z,98122.94
2018-12-23T17:31:59.228Z,98114.33
2018-12-23T17:35:03.848Z,98113.52
2018-12-23T17:38:08.744Z,98122.30
2018-12-23T17:41:13.292Z,98117.50
2018-12-23T17:44:17.845Z,98121.23
2018-12-23T17:47:22.722Z,98119.57
2018-12-23T17:50:27.266Z,98116.31
2018-12-23T17:53:31.813Z,98112.53
2018-12-23T17:56:36.355Z,98127.00
2018-12-23T17:59:40.905Z,98130.73
2018-12-23T18:02:49.456Z,98118.36
2018-12-23T18:05:54.010Z,98116.68
2018-12-23T18:08:58.806Z,98110.31
2018-12-23T18:12:03.664Z,98105.13
2018-12-23T18:15:08.186Z,98104.83
2018-12-23T18:18:13.270Z,98102.69
2018-12-23T18:21:17.802Z,98109.11
2018-12-23T18:24:22.347Z,98107.23
2018-12-23T18:27:26.897Z,98096.50
2018-12-23T18:30:31.461Z,98095.91
2018-12-23T18:33:36.345Z,98104.27
2018-12-23T18:36:40.893Z,98113.41
2018-12-23T18:39:45.478Z,98111.53
2018-12-23T18:42:49.984Z,98114.48
2018-12-23T18:45:54.764Z,98115.28
2018-12-23T18:48:59.408Z,98107.98
2018-12-23T18:52:05.885Z,98115.75
2018-12-23T18:55:16.663Z,98121.34
2018-12-23T18:58:26.402Z,98118.08
2018-12-23T19:01:33.579Z,98122.34
2018-12-23T19:04:41.719Z,98118.84
2018-12-23T19:07:48.054Z,98127.13
2018-12-23T19:11:12.191Z,98121.45
2018-12-23T19:14:32.634Z,98123.73
2018-12-23T19:18:18.334Z,98118.59
2018-12-23T19:22:02.881Z,98118.87
2018-12-23T19:25:41.477Z,98121.00
2018-12-23T19:28:58.311Z,98118.59
2018-12-23T19:32:31.770Z,98115.28
2018-12-23T19:36:11.490Z,98110.23
2018-12-23T19:39:53.893Z,98117.42
2018-12-23T19:43:33.713Z,98117.99
2018-12-23T19:47:00.697Z,98117.72
2018-12-23T19:50:31.414Z,98121.41
2018-12-23T19:53:58.597Z,98125.51
2018-12-23T19:57:34.746Z,98125.48
2018-12-23T20:00:59.256Z,98124.38
2018-12-23T20:04:29.436Z,98116.53
2018-12-23T20:08:09.025Z,98114.39
2018-12-23T20:11:52.620Z,98122.73
2018-12-23T20:15:02.215Z,98120.73
2018-12-23T20:18:42.892Z,98108.85
2018-12-23T20:22:25.705Z,98100.27
2018-12-23T20:25:49.688Z,98093.00
2018-12-23T20:29:33.754Z,98102.95
2018-12-23T20:33:02.448Z,98097.58
2018-12-23T20:36:35.432Z,98091.08
2018-12-23T20:39:59.926Z,98094.07
2018-12-23T20:43:30.666Z,98097.58
2018-12-23T20:46:59.499Z,98092.75
2018-12-23T20:50:20.571Z,98084.65
2018-12-23T20:54:01.913Z,98084.09
2018-12-23T20:57:56.658Z,98079.56
2018-12-23T21:01:20.600Z,98081.45
2018-12-23T21:04:50.617Z,98064.91
2018-12-23T21:08:23.667Z,98073.22
2018-12-23T21:11:53.800Z,98071.63
2018-12-23T21:15:31.186Z,98068.13
2018-12-23T21:19:05.629Z,98065.28
2018-12-23T21:22:14.880Z,98051.83
2018-12-23T21:26:04.128Z,98050.48
2018-12-23T21:29:38.753Z,98042.34
2018-12-23T21:33:11.032Z,98046.05
2018-12-23T21:36:35.451Z,98039.34
2018-12-23T21:39:53.162Z,98043.17
2018-12-23T21:43:25.798Z,98046.28
2018-12-23T21:46:56.173Z,98049.23
2018-12-23T21:50:10.856Z,98049.53
2018-12-23T21:53:43.819Z,98050.31
2018-12-23T21:57:24.658Z,98041.78
2018-12-23T22:00:44.923Z,98047.04
2018-12-23T22:04:13.805Z,98053.34
2018-12-23T22:07:34.805Z,98049.89
2018-12-23T22:11:18.974Z,98050.48
2018-12-23T22:14:23.512Z,98052.20
2018-12-23T22:17:28.332Z,98045.23
2018-12-23T22:20:32.912Z,98042.48
2018-12-23T22:23:37.789Z,98039.01
2018-12-23T22:26:42.337Z,98043.66
2018-12-23T22:29:47.149Z,98031.80
2018-12-23T22:32:51.704Z,98028.42
2018-12-23T22:35:56.819Z,98016.55
2018-12-23T22:39:01.650Z,98013.59
2018-12-23T22:42:06.196Z,98015.53
2018-12-23T22:45:10.731Z,98011.81
2018-12-23T22:48:15.544Z,98001.58
2018-12-23T22:51:20.100Z,98001.56
2018-12-23T22:54:24.889Z,98008.48
2018-12-23T22:57:29.829Z,98006.04
2018-12-23T23:00:34.739Z,97989.89
2018-12-23T23:03:39.280Z,97998.95
2018-12-23T23:06:43.834Z,97999.20
2018-12-23T23:09:48.648Z,98004.04
2018-12-23T23:12:53.200Z,98000.40
2018-12-23T23:15:57.745Z,98005.16
2018-12-23T23:19:02.765Z,98000.12
2018-12-23T23:22:07.316Z,97994.41
2018-12-23T23:25:12.203Z,97983.28
2018-12-23T23:28:16.754Z,97982.41
2018-12-23T23:31:21.304Z,97983.17
2018-12-23T23:34:25.854Z,97974.39
2018-12-23T23:37:30.401Z,97977.67
2018-12-23T23:40:35.235Z,97965.80
2018-12-23T23:43:39.792Z,97961.56
2018-12-23T23:46:44.332Z,97958.14
2018-12-23T23:49:48.880Z,97945.24
2018-12-23T23:52:53.433Z,97931.71
2018-12-23T23:55:57.973Z,97922.81
2018-12-23T23:59:02.806Z,97915.86
